Time;durP1;ratioP1;P1;durP2;ratioP2;P2;SDS_P1;SDS_P2;PMS_P1;PMS_P2;Temp;Humidity;BMP_temperature;BMP_pressure;BME280_temperature;BME280_humidity;BME280_pressure;Samples;Min_cycle;Max_cycle;Signal;HPM_P1;HPM_P2
2024/01/26 00:02:17;;;;;;;27.58;14.38;;;6.40;99.90;;;;;;4994354;28;20026;-72
2024/01/26 00:04:43;;;;;;;28.67;11.90;;;6.40;99.90;;;;;;4994588;28;20038;-77
2024/01/26 00:07:09;;;;;;;25.08;12.20;;;6.40;99.90;;;;;;4994001;28;20034;-77
2024/01/26 00:09:35;;;;;;;21.73;10.18;;;6.40;99.90;;;;;;4994527;28;20053;-73
2024/01/26 00:12:01;;;;;;;23.48;10.35;;;6.40;99.90;;;;;;4993894;28;20058;-73
2024/01/26 00:14:27;;;;;;;19.35;9.02;;;6.30;99.90;;;;;;4993337;28;20022;-76
2024/01/26 00:16:53;;;;;;;21.13;10.63;;;6.30;99.90;;;;;;4993931;28;20085;-72
2024/01/26 00:19:19;;;;;;;24.50;9.85;;;6.20;99.90;;;;;;4994601;28;20026;-76
2024/01/26 00:21:44;;;;;;;23.45;9.20;;;6.20;99.90;;;;;;4993994;28;20029;-73
2024/01/26 00:24:11;;;;;;;24.75;9.77;;;6.20;99.90;;;;;;4976361;28;20474;-72
2024/01/26 00:26:37;;;;;;;21.13;8.15;;;6.20;99.90;;;;;;4976409;28;20063;-76
2024/01/26 00:29:03;;;;;;;18.77;7.95;;;6.10;99.90;;;;;;4993694;28;20510;-73
2024/01/26 00:31:28;;;;;;;18.25;8.13;;;6.10;99.90;;;;;;4993906;28;20489;-73
2024/01/26 00:33:54;;;;;;;21.67;10.45;;;6.10;99.90;;;;;;4993623;28;20096;-73
2024/01/26 00:36:20;;;;;;;21.58;9.68;;;6.00;99.90;;;;;;4993837;28;20034;-74
2024/01/26 00:38:46;;;;;;;23.65;10.77;;;5.90;99.90;;;;;;4993646;28;20180;-73
2024/01/26 00:41:12;;;;;;;23.30;9.65;;;5.90;99.90;;;;;;4993714;28;20023;-75
2024/01/26 00:43:38;;;;;;;21.65;11.30;;;5.80;99.90;;;;;;4993474;28;20034;-73
2024/01/26 00:46:04;;;;;;;22.83;10.65;;;5.80;99.90;;;;;;4993203;28;20030;-73
2024/01/26 00:48:30;;;;;;;23.30;10.35;;;5.80;99.90;;;;;;4976100;28;20022;-75
2024/01/26 00:50:56;;;;;;;21.35;10.18;;;5.70;99.90;;;;;;4993434;28;20112;-72
2024/01/26 00:53:22;;;;;;;21.10;10.25;;;5.70;99.90;;;;;;4993638;28;20109;-74
2024/01/26 00:55:49;;;;;;;22.10;9.98;;;5.70;99.90;;;;;;4993367;28;20105;-72
2024/01/26 00:58:14;;;;;;;20.13;7.85;;;5.70;99.90;;;;;;4993268;28;20026;-71
2024/01/26 01:00:41;;;;;;;18.73;8.25;;;5.70;99.90;;;;;;4993096;28;20030;-72
2024/01/26 01:03:06;;;;;;;22.20;8.77;;;5.80;99.90;;;;;;4993167;28;20389;-72
2024/01/26 01:05:32;;;;;;;19.30;8.40;;;5.80;99.90;;;;;;4947159;28;20086;-73
2024/01/26 01:07:58;;;;;;;18.83;8.20;;;5.80;99.90;;;;;;4991905;28;20054;-73
2024/01/26 01:10:25;;;;;;;20.88;7.60;;;5.80;99.90;;;;;;4992822;28;20034;-73
2024/01/26 01:12:52;;;;;;;14.90;7.43;;;5.80;99.90;;;;;;4993242;28;20030;-74
2024/01/26 01:15:18;;;;;;;20.48;7.78;;;5.80;99.90;;;;;;4992878;28;20023;-71
2024/01/26 01:17:45;;;;;;;24.15;7.63;;;5.70;99.90;;;;;;4992662;28;20023;-73
2024/01/26 01:20:13;;;;;;;17.95;8.05;;;5.70;99.90;;;;;;4993372;28;20026;-73
2024/01/26 01:22:49;;;;;;;17.83;7.82;;;5.60;99.90;;;;;;4992675;28;20088;-71
2024/01/26 01:25:15;;;;;;;15.23;6.88;;;5.60;99.90;;;;;;4992717;28;20486;-71
2024/01/26 01:27:41;;;;;;;17.25;7.47;;;5.60;99.90;;;;;;4975053;28;20027;-73
2024/01/26 01:30:09;;;;;;;16.50;6.82;;;5.60;99.90;;;;;;4992875;28;20101;-72
2024/01/26 01:32:35;;;;;;;17.70;7.93;;;5.60;99.90;;;;;;4979957;28;20097;-73
2024/01/26 01:35:02;;;;;;;15.88;7.47;;;5.50;99.90;;;;;;4992630;28;20029;-71
2024/01/26 01:37:28;;;;;;;20.98;7.30;;;5.50;99.90;;;;;;4992926;28;20054;-72
2024/01/26 01:39:54;;;;;;;21.30;7.78;;;5.40;99.90;;;;;;4992325;28;20057;-73
2024/01/26 01:42:19;;;;;;;19.58;7.82;;;5.40;99.90;;;;;;4992845;28;20049;-71
2024/01/26 01:44:46;;;;;;;20.73;7.70;;;5.30;99.90;;;;;;4992010;28;20057;-71
2024/01/26 01:47:14;;;;;;;16.75;7.57;;;5.30;99.90;;;;;;4992622;28;20026;-74
2024/01/26 01:49:42;;;;;;;20.60;9.57;;;5.30;99.90;;;;;;4992464;28;20026;-71
2024/01/26 01:52:09;;;;;;;18.65;7.97;;;5.20;99.90;;;;;;4992643;28;20026;-72
2024/01/26 01:54:37;;;;;;;17.65;7.40;;;5.20;99.90;;;;;;4975124;28;20027;-71
2024/01/26 01:57:04;;;;;;;20.17;8.13;;;5.20;99.90;;;;;;4992712;28;20363;-71
2024/01/26 01:59:31;;;;;;;18.50;7.93;;;5.10;99.90;;;;;;4992246;28;20475;-72
2024/01/26 02:01:57;;;;;;;18.33;7.38;;;5.10;99.90;;;;;;4992135;28;20373;-77
2024/01/26 02:04:23;;;;;;;14.57;7.28;;;5.00;99.90;;;;;;4992585;28;20101;-76
2024/01/26 02:06:59;;;;;;;20.73;8.07;;;5.00;99.90;;;;;;4992202;28;20382;-71
2024/01/26 02:09:26;;;;;;;22.13;7.85;;;5.00;99.90;;;;;;4992504;28;20409;-72
2024/01/26 02:11:52;;;;;;;14.95;7.10;;;4.90;99.90;;;;;;4992180;28;20057;-76
2024/01/26 02:14:19;;;;;;;22.75;8.55;;;4.90;99.90;;;;;;4992352;28;20034;-73
2024/01/26 02:16:58;;;;;;;23.67;7.45;;;4.90;99.90;;;;;;4992375;28;20037;-73
2024/01/26 02:19:26;;;;;;;22.60;7.05;;;4.90;99.90;;;;;;4991984;28;20521;-72
2024/01/26 02:21:52;;;;;;;16.80;7.47;;;4.90;99.90;;;;;;4992632;28;20026;-73
2024/01/26 02:24:18;;;;;;;21.48;8.38;;;4.80;99.90;;;;;;4992054;28;20374;-73
2024/01/26 02:26:44;;;;;;;15.27;7.28;;;4.80;99.90;;;;;;4992326;28;20038;-74
2024/01/26 02:29:10;;;;;;;16.42;7.25;;;4.80;99.90;;;;;;4991954;28;20081;-77
2024/01/26 02:31:36;;;;;;;19.52;7.78;;;4.80;99.90;;;;;;4992160;28;20084;-75
2024/01/26 02:34:02;;;;;;;16.13;6.10;;;4.80;99.90;;;;;;4991990;28;20097;-74
2024/01/26 02:36:29;;;;;;;25.65;7.40;;;4.70;99.90;;;;;;4992288;28;20033;-76
2024/01/26 02:38:55;;;;;;;16.95;6.95;;;4.70;99.90;;;;;;4992294;28;20029;-72
2024/01/26 02:41:21;;;;;;;20.85;8.35;;;4.70;99.90;;;;;;4991944;28;20022;-72
2024/01/26 02:43:47;;;;;;;24.30;8.43;;;4.70;99.90;;;;;;4991999;28;20525;-72
2024/01/26 02:46:13;;;;;;;18.90;7.72;;;4.70;99.90;;;;;;4992358;28;20557;-73
2024/01/26 02:48:39;;;;;;;24.10;8.82;;;4.60;99.90;;;;;;4977478;28;20140;-74
2024/01/26 02:51:05;;;;;;;20.67;8.48;;;4.60;99.90;;;;;;4995782;28;20054;-76
2024/01/26 02:53:32;;;;;;;21.10;7.85;;;4.50;99.90;;;;;;4995749;28;20533;-76
2024/01/26 02:55:58;;;;;;;21.27;7.80;;;4.40;99.90;;;;;;4995628;28;20501;-73
2024/01/26 02:58:24;;;;;;;16.83;6.68;;;4.40;99.90;;;;;;4995436;28;20022;-74
2024/01/26 03:00:50;;;;;;;16.73;7.68;;;4.30;99.90;;;;;;4995621;28;20034;-73
2024/01/26 03:03:16;;;;;;;20.27;6.65;;;4.30;99.90;;;;;;4995062;28;20092;-74
2024/01/26 03:05:41;;;;;;;19.42;8.68;;;4.30;99.90;;;;;;4965262;28;20474;-72
2024/01/26 03:08:08;;;;;;;19.35;7.50;;;4.30;99.90;;;;;;4965271;28;20084;-75
2024/01/26 03:10:34;;;;;;;14.75;7.20;;;4.20;99.90;;;;;;4995200;28;20871;-73
2024/01/26 03:13:00;;;;;;;18.88;7.78;;;4.20;99.90;;;;;;4995017;28;20173;-73
2024/01/26 03:15:25;;;;;;;16.70;7.22;;;4.10;99.90;;;;;;4995417;28;20035;-73
2024/01/26 03:17:52;;;;;;;17.05;7.22;;;4.10;99.90;;;;;;4995188;28;20041;-74
2024/01/26 03:20:18;;;;;;;19.17;6.93;;;4.10;99.90;;;;;;4995281;28;20045;-74
2024/01/26 03:22:44;;;;;;;13.45;6.40;;;4.00;99.90;;;;;;4994991;28;20091;-74
2024/01/26 03:25:10;;;;;;;20.20;6.28;;;4.00;99.90;;;;;;4995043;28;20065;-73
2024/01/26 03:27:36;;;;;;;18.60;6.82;;;4.00;99.90;;;;;;4994626;28;20023;-72
2024/01/26 03:30:03;;;;;;;16.10;6.63;;;4.00;99.90;;;;;;4994744;28;20148;-73
2024/01/26 03:32:30;;;;;;;18.20;6.72;;;4.00;99.90;;;;;;4994625;28;20122;-73
2024/01/26 03:34:56;;;;;;;15.85;6.18;;;4.00;99.90;;;;;;4995039;28;20478;-72
2024/01/26 03:37:22;;;;;;;16.23;6.28;;;4.00;99.90;;;;;;4995005;28;20030;-74
2024/01/26 03:39:48;;;;;;;12.93;6.25;;;4.00;99.90;;;;;;4994532;28;20352;-73
2024/01/26 03:42:14;;;;;;;20.63;6.97;;;4.00;99.90;;;;;;4994535;28;20101;-73
2024/01/26 03:44:43;;;;;;;18.00;6.80;;;4.00;99.90;;;;;;4994622;28;20466;-72
2024/01/26 03:47:09;;;;;;;16.23;5.13;;;3.90;99.90;;;;;;4994504;28;20034;-73
2024/01/26 03:49:36;;;;;;;14.90;5.55;;;3.90;99.90;;;;;;4994480;28;20019;-73
2024/01/26 03:52:04;;;;;;;17.90;5.85;;;3.90;99.90;;;;;;4994538;28;20097;-73
2024/01/26 03:54:30;;;;;;;19.15;6.25;;;3.90;99.90;;;;;;4994738;28;20507;-75
2024/01/26 03:56:56;;;;;;;15.38;5.18;;;3.80;99.90;;;;;;4994143;28;20019;-72
2024/01/26 03:59:21;;;;;;;15.23;6.03;;;3.80;99.90;;;;;;4994400;28;20034;-76
2024/01/26 04:01:48;;;;;;;14.95;5.05;;;3.80;99.90;;;;;;4994115;28;20029;-72
2024/01/26 04:04:13;;;;;;;13.77;5.10;;;3.80;99.90;;;;;;4994395;28;20390;-74
2024/01/26 04:06:40;;;;;;;14.35;5.30;;;3.80;99.90;;;;;;4993762;28;20576;-73
2024/01/26 04:09:07;;;;;;;14.35;5.97;;;3.80;99.90;;;;;;4976034;28;20451;-72
2024/01/26 04:11:33;;;;;;;16.38;5.18;;;3.80;99.90;;;;;;4985225;28;20050;-73
2024/01/26 04:13:59;;;;;;;18.15;6.18;;;3.80;99.90;;;;;;4995066;28;20038;-73
2024/01/26 04:16:25;;;;;;;16.40;5.50;;;3.80;99.90;;;;;;4989770;28;20042;-72
2024/01/26 04:18:50;;;;;;;12.13;5.03;;;3.80;99.90;;;;;;4993763;28;20072;-75
2024/01/26 04:21:16;;;;;;;15.85;6.13;;;3.80;99.90;;;;;;4994188;28;20056;-76
2024/01/26 04:23:42;;;;;;;16.38;6.18;;;3.80;99.90;;;;;;4993754;28;20383;-73
2024/01/26 04:26:08;;;;;;;13.55;5.05;;;3.80;99.90;;;;;;4994122;28;20034;-75
2024/01/26 04:28:34;;;;;;;14.68;6.00;;;3.80;99.90;;;;;;4993549;28;20389;-73
2024/01/26 04:31:00;;;;;;;17.67;5.85;;;3.80;99.90;;;;;;4994186;28;20031;-73
2024/01/26 04:33:26;;;;;;;15.32;6.03;;;3.80;99.90;;;;;;4993733;28;20025;-72
2024/01/26 04:35:52;;;;;;;19.08;6.10;;;3.80;99.90;;;;;;4993800;28;20026;-72
2024/01/26 04:38:18;;;;;;;16.58;5.80;;;3.80;99.90;;;;;;4993448;28;20034;-73
2024/01/26 04:40:44;;;;;;;19.92;6.70;;;3.80;99.90;;;;;;4976314;28;20069;-73
2024/01/26 04:43:09;;;;;;;17.42;7.47;;;3.80;99.90;;;;;;4959887;28;20077;-72
2024/01/26 04:45:35;;;;;;;17.55;7.40;;;3.80;99.90;;;;;;4993488;28;20093;-73
2024/01/26 04:48:03;;;;;;;16.83;7.35;;;3.80;99.90;;;;;;4992464;28;20030;-73
2024/01/26 04:50:29;;;;;;;21.45;8.75;;;3.80;99.90;;;;;;4980850;28;20443;-72
2024/01/26 04:52:55;;;;;;;25.27;10.98;;;3.80;99.90;;;;;;4991989;28;20117;-77
2024/01/26 04:55:28;;;;;;;22.15;9.52;;;3.80;99.90;;;;;;4992294;28;20037;-72
2024/01/26 04:57:54;;;;;;;21.95;9.15;;;3.80;99.90;;;;;;4990531;28;20088;-75
2024/01/26 05:00:20;;;;;;;25.35;9.93;;;3.80;99.90;;;;;;4991323;28;20030;-73
2024/01/26 05:02:46;;;;;;;20.15;8.75;;;3.80;99.90;;;;;;4972230;28;20466;-73
2024/01/26 05:05:12;;;;;;;26.33;7.75;;;3.80;99.90;;;;;;4990833;28;20081;-76
2024/01/26 05:07:38;;;;;;;18.63;8.15;;;3.70;99.90;;;;;;4990697;28;20023;-73
2024/01/26 05:10:05;;;;;;;20.65;8.07;;;3.70;99.90;;;;;;4992612;28;20034;-73
2024/01/26 05:12:32;;;;;;;21.63;7.53;;;3.80;99.90;;;;;;4992788;28;20061;-72
2024/01/26 05:14:58;;;;;;;14.77;5.80;;;3.80;99.90;;;;;;4993134;28;20058;-73
2024/01/26 05:17:24;;;;;;;22.33;6.05;;;3.80;99.90;;;;;;4978737;28;20466;-72
2024/01/26 05:19:50;;;;;;;17.25;6.25;;;3.80;99.90;;;;;;4992862;28;20434;-77
2024/01/26 05:25:45;;;;;;;16.60;6.40;;;3.90;99.90;;;;;;5142666;23;20051;-75
2024/01/26 05:28:11;;;;;;;19.42;6.78;;;3.80;99.90;;;;;;4973798;28;20027;-74
2024/01/26 05:30:37;;;;;;;25.17;6.78;;;3.80;99.90;;;;;;4953473;28;20126;-79
2024/01/26 05:33:03;;;;;;;13.15;5.97;;;3.80;99.90;;;;;;4973710;28;20130;-76
2024/01/26 05:35:30;;;;;;;14.77;5.65;;;3.80;99.90;;;;;;4973682;28;20389;-80
2024/01/26 05:37:56;;;;;;;15.85;6.22;;;3.90;99.90;;;;;;4973221;28;20035;-75
2024/01/26 05:40:22;;;;;;;15.18;7.25;;;3.80;99.90;;;;;;4973279;28;20113;-80
2024/01/26 05:42:48;;;;;;;13.63;5.57;;;3.80;99.90;;;;;;4972839;28;20546;-78
2024/01/26 05:45:15;;;;;;;17.60;7.75;;;3.80;99.90;;;;;;4973269;28;20462;-76
2024/01/26 05:47:41;;;;;;;18.98;7.85;;;3.80;99.90;;;;;;4973012;28;20496;-78
2024/01/26 05:50:07;;;;;;;17.65;8.23;;;3.80;99.90;;;;;;4973570;28;20019;-75
2024/01/26 05:52:33;;;;;;;23.88;9.60;;;3.80;99.90;;;;;;4973125;28;20027;-77
2024/01/26 05:54:59;;;;;;;19.88;9.45;;;3.90;99.90;;;;;;4972861;28;20101;-78
2024/01/26 05:57:25;;;;;;;25.17;11.13;;;3.80;99.90;;;;;;4972857;28;20058;-74
2024/01/26 05:59:51;;;;;;;23.95;10.93;;;3.80;99.90;;;;;;4973272;28;20041;-72
2024/01/26 06:02:16;;;;;;;19.52;7.38;;;3.90;99.90;;;;;;4972814;28;20027;-74
2024/01/26 06:04:42;;;;;;;17.17;7.47;;;3.90;99.90;;;;;;4973043;28;20034;-73
2024/01/26 06:07:08;;;;;;;14.63;6.35;;;3.90;99.90;;;;;;4973136;28;20122;-76
2024/01/26 06:09:34;;;;;;;15.65;7.32;;;3.90;99.90;;;;;;4954713;28;20182;-78
2024/01/26 06:12:00;;;;;;;16.90;6.97;;;3.90;99.90;;;;;;4971951;28;20026;-80
2024/01/26 06:14:26;;;;;;;19.02;8.63;;;3.90;99.90;;;;;;4972787;28;20030;-80
2024/01/26 06:16:51;;;;;;;20.95;8.82;;;3.90;99.90;;;;;;4972789;28;20102;-73
2024/01/26 06:19:17;;;;;;;19.17;7.80;;;3.90;99.90;;;;;;4972959;28;20114;-78
2024/01/26 06:21:43;;;;;;;20.58;8.70;;;3.90;99.90;;;;;;4975936;28;20509;-79
2024/01/26 06:24:10;;;;;;;14.70;6.97;;;3.90;99.90;;;;;;4976750;28;20141;-75
2024/01/26 06:26:37;;;;;;;21.27;7.90;;;3.90;99.90;;;;;;4976467;28;20065;-75
2024/01/26 06:29:03;;;;;;;19.05;7.20;;;4.00;99.90;;;;;;4976640;28;20041;-74
2024/01/26 06:31:29;;;;;;;18.45;6.75;;;4.00;99.90;;;;;;4976777;28;20031;-74
2024/01/26 06:33:55;;;;;;;17.15;6.57;;;4.10;99.90;;;;;;4977082;28;20105;-74
2024/01/26 06:36:21;;;;;;;19.67;7.45;;;4.20;99.90;;;;;;4976720;28;20023;-74
2024/01/26 06:38:47;;;;;;;20.65;6.85;;;4.20;99.90;;;;;;4976904;28;20448;-76
2024/01/26 06:41:13;;;;;;;14.00;6.28;;;4.30;99.90;;;;;;4976281;28;20102;-79
2024/01/26 06:43:39;;;;;;;14.27;7.57;;;4.40;99.90;;;;;;4976382;28;20026;-76
2024/01/26 06:46:05;;;;;;;13.30;6.78;;;4.40;99.90;;;;;;4976367;28;20556;-75
2024/01/26 06:48:30;;;;;;;18.52;7.20;;;4.50;99.90;;;;;;4976489;28;20023;-76
2024/01/26 06:50:56;;;;;;;16.27;7.22;;;4.60;99.90;;;;;;4958898;28;20105;-80
2024/01/26 06:53:22;;;;;;;16.95;6.18;;;4.60;99.90;;;;;;4976459;28;20023;-74
2024/01/26 06:55:48;;;;;;;14.88;6.72;;;4.70;99.90;;;;;;4976164;28;20030;-76
2024/01/26 06:58:14;;;;;;;14.18;7.53;;;4.70;99.90;;;;;;4959047;28;20041;-77
2024/01/26 07:00:40;;;;;;;16.23;6.95;;;4.80;99.90;;;;;;4976220;28;20109;-75
2024/01/26 07:03:06;;;;;;;18.48;6.15;;;4.90;99.90;;;;;;4975894;28;20105;-75
2024/01/26 07:05:32;;;;;;;17.08;6.88;;;5.00;99.90;;;;;;4958902;28;20074;-75
2024/01/26 07:08:00;;;;;;;17.65;8.07;;;5.00;99.90;;;;;;4976103;28;20031;-73
2024/01/26 07:10:26;;;;;;;16.67;6.53;;;5.10;99.90;;;;;;4956618;23;20048;-74
2024/01/26 07:12:51;;;;;;;20.88;10.35;;;5.30;99.90;;;;;;4952643;29;20033;-74
2024/01/26 07:15:17;;;;;;;26.92;11.73;;;5.30;99.90;;;;;;4956829;29;20066;-78
2024/01/26 07:17:43;;;;;;;18.00;8.05;;;5.40;99.90;;;;;;4938773;29;20078;-77
2024/01/26 07:20:09;;;;;;;13.68;6.82;;;5.50;99.90;;;;;;4956385;29;20035;-77
2024/01/26 07:22:35;;;;;;;15.70;7.20;;;5.50;99.90;;;;;;4956381;29;20082;-75
2024/01/26 07:25:01;;;;;;;17.67;7.40;;;5.60;99.90;;;;;;4956363;29;20035;-77
2024/01/26 07:27:28;;;;;;;17.35;7.28;;;5.60;99.90;;;;;;4955384;29;20071;-73
2024/01/26 07:29:53;;;;;;;22.58;7.55;;;5.70;99.90;;;;;;4956204;29;20023;-75
2024/01/26 07:32:19;;;;;;;13.75;7.18;;;5.70;99.90;;;;;;4955844;28;20493;-74
2024/01/26 07:34:45;;;;;;;17.75;6.90;;;5.70;99.90;;;;;;4956073;29;20497;-73
2024/01/26 07:37:11;;;;;;;19.13;7.88;;;5.70;99.90;;;;;;4956393;29;20034;-75
2024/01/26 07:39:37;;;;;;;14.05;6.93;;;5.80;99.90;;;;;;4955866;29;20111;-75
2024/01/26 07:42:03;;;;;;;17.75;7.60;;;5.80;99.90;;;;;;4956020;29;20019;-75
2024/01/26 07:44:29;;;;;;;16.75;6.47;;;5.90;99.90;;;;;;4955990;29;20027;-75
2024/01/26 07:46:55;;;;;;;13.93;6.22;;;5.90;99.90;;;;;;4956078;29;20039;-74
2024/01/26 07:49:20;;;;;;;18.27;7.13;;;6.00;99.90;;;;;;4945619;29;20040;-76
2024/01/26 07:51:46;;;;;;;20.02;6.93;;;6.00;99.90;;;;;;4951992;29;20041;-74
2024/01/26 07:54:13;;;;;;;19.15;7.47;;;5.90;99.90;;;;;;4955853;29;20082;-75
2024/01/26 07:56:39;;;;;;;12.68;6.07;;;6.00;99.90;;;;;;4955234;28;20027;-74
2024/01/26 07:59:04;;;;;;;23.83;6.43;;;5.90;99.90;;;;;;4955983;28;20375;-76
2024/01/26 08:01:30;;;;;;;20.75;8.13;;;6.00;99.90;;;;;;4955489;29;20101;-80
2024/01/26 08:03:56;;;;;;;20.50;7.63;;;6.10;99.90;;;;;;4954782;29;20027;-75
2024/01/26 08:06:22;;;;;;;17.90;8.32;;;6.20;99.90;;;;;;4955549;29;20051;-74
2024/01/26 08:08:48;;;;;;;20.10;8.65;;;6.20;99.90;;;;;;4956520;28;20032;-73
2024/01/26 08:11:18;;;;;;;20.55;9.13;;;6.40;99.90;;;;;;4974595;28;20414;-75
2024/01/26 08:13:44;;;;;;;18.02;8.13;;;6.40;99.90;;;;;;4973654;28;20031;-78
2024/01/26 08:16:16;;;;;;;21.20;7.90;;;6.40;99.90;;;;;;4974520;28;20023;-73
2024/01/26 08:18:42;;;;;;;20.80;8.30;;;6.50;99.90;;;;;;4974826;28;20088;-78
2024/01/26 08:21:10;;;;;;;15.98;8.18;;;6.50;99.90;;;;;;4973337;28;20130;-80
2024/01/26 08:23:36;;;;;;;17.45;8.00;;;6.60;99.90;;;;;;4974691;28;20121;-76
2024/01/26 08:26:03;;;;;;;23.33;8.50;;;6.70;99.90;;;;;;4974398;28;20045;-73
2024/01/26 08:28:29;;;;;;;15.50;7.50;;;6.80;99.90;;;;;;4974621;28;20363;-79
2024/01/26 08:30:55;;;;;;;17.10;7.72;;;6.90;99.90;;;;;;4974366;28;20085;-75
2024/01/26 08:33:21;;;;;;;16.20;6.72;;;7.00;99.90;;;;;;4974609;28;20031;-77
2024/01/26 08:35:47;;;;;;;19.13;7.35;;;7.10;99.90;;;;;;4974645;28;20038;-79
2024/01/26 08:38:13;;;;;;;23.17;7.75;;;7.20;99.90;;;;;;4974088;28;20030;-78
2024/01/26 08:40:39;;;;;;;17.88;6.97;;;7.30;99.90;;;;;;4956579;28;20027;-73
2024/01/26 08:43:05;;;;;;;14.57;7.15;;;7.40;99.90;;;;;;4956750;28;20114;-73
2024/01/26 08:45:31;;;;;;;20.48;7.72;;;7.60;99.90;;;;;;4955309;28;20343;-75
2024/01/26 08:47:56;;;;;;;15.10;6.45;;;7.60;99.90;;;;;;4974296;28;20035;-76
2024/01/26 08:50:22;;;;;;;15.40;5.88;;;7.70;99.90;;;;;;4973934;28;20023;-75
2024/01/26 08:52:48;;;;;;;15.45;7.38;;;7.70;99.90;;;;;;4974077;28;20078;-74
2024/01/26 08:55:14;;;;;;;14.50;5.35;;;7.90;99.90;;;;;;4956331;28;20062;-74
2024/01/26 08:57:43;;;;;;;17.65;6.72;;;7.90;99.60;;;;;;4974165;28;20438;-73
2024/01/26 09:00:12;;;;;;;16.92;5.60;;;8.00;99.90;;;;;;4972667;28;20081;-74
2024/01/26 09:02:38;;;;;;;15.20;4.90;;;7.90;99.30;;;;;;4972709;28;20364;-74
2024/01/26 09:05:06;;;;;;;13.55;5.85;;;8.10;99.40;;;;;;4973116;28;20025;-73
2024/01/26 09:07:32;;;;;;;22.33;6.68;;;8.20;99.70;;;;;;4973693;28;20442;-73
2024/01/26 09:09:58;;;;;;;12.07;4.78;;;8.40;99.40;;;;;;4973373;28;20051;-73
2024/01/26 09:12:24;;;;;;;16.42;5.22;;;8.30;97.50;;;;;;4973780;28;20066;-75
2024/01/26 09:14:49;;;;;;;13.13;4.70;;;8.50;99.10;;;;;;4973583;28;20054;-72
2024/01/26 09:17:16;;;;;;;14.05;5.00;;;8.40;98.20;;;;;;4973470;28;20129;-76
2024/01/26 09:19:42;;;;;;;13.25;4.03;;;8.40;97.90;;;;;;4973708;28;20026;-77
2024/01/26 09:22:08;;;;;;;15.80;5.38;;;8.40;97.40;;;;;;4973464;28;20478;-75
2024/01/26 09:24:34;;;;;;;11.52;4.80;;;8.50;97.50;;;;;;4973476;28;20082;-75
2024/01/26 09:27:01;;;;;;;11.70;4.55;;;8.50;96.00;;;;;;4973322;28;20034;-72
2024/01/26 09:29:26;;;;;;;15.23;5.15;;;8.60;97.00;;;;;;4973199;28;20043;-74
2024/01/26 09:31:54;;;;;;;10.68;4.25;;;8.50;97.00;;;;;;4973460;28;20035;-75
2024/01/26 09:34:20;;;;;;;15.23;4.65;;;8.70;97.70;;;;;;4973344;28;20023;-74
2024/01/26 09:36:46;;;;;;;12.05;5.03;;;8.70;96.20;;;;;;4973539;28;20022;-73
2024/01/26 09:39:12;;;;;;;15.90;4.88;;;8.80;96.50;;;;;;4972911;28;20033;-73
2024/01/26 09:41:39;;;;;;;14.68;4.20;;;8.80;96.30;;;;;;4973404;28;20390;-73
2024/01/26 09:44:05;;;;;;;10.18;4.72;;;8.80;96.00;;;;;;4973109;28;20478;-75
2024/01/26 09:46:31;;;;;;;9.40;4.38;;;8.80;96.20;;;;;;4973153;28;20039;-75
2024/01/26 09:48:58;;;;;;;12.23;4.05;;;8.90;96.30;;;;;;4972903;28;20023;-72
2024/01/26 09:51:26;;;;;;;7.60;3.65;;;8.80;95.60;;;;;;4973541;28;20441;-74
2024/01/26 09:53:58;;;;;;;10.30;4.30;;;8.80;95.50;;;;;;4973088;28;20023;-73
2024/01/26 09:56:26;;;;;;;10.05;3.67;;;8.80;95.30;;;;;;4972789;28;20039;-75
2024/01/26 09:58:52;;;;;;;13.20;4.40;;;8.90;94.40;;;;;;4972906;28;20023;-73
2024/01/26 10:01:21;;;;;;;12.68;4.60;;;8.90;94.80;;;;;;4973164;28;20030;-80
2024/01/26 10:03:48;;;;;;;10.40;4.97;;;9.00;96.10;;;;;;4973287;28;20577;-74
2024/01/26 10:06:14;;;;;;;10.75;4.25;;;9.00;95.20;;;;;;4972792;28;20090;-75
2024/01/26 10:08:41;;;;;;;7.72;3.22;;;9.00;94.90;;;;;;4973106;28;20030;-73
2024/01/26 10:11:07;;;;;;;8.55;3.42;;;9.00;95.00;;;;;;4955295;28;20102;-73
2024/01/26 10:13:33;;;;;;;10.13;3.35;;;9.10;95.30;;;;;;4972723;28;20035;-73
2024/01/26 10:16:10;;;;;;;10.00;3.72;;;9.10;95.00;;;;;;4972706;28;20390;-73
2024/01/26 10:18:42;;;;;;;8.43;3.50;;;9.20;94.80;;;;;;4971723;28;20477;-73
2024/01/26 10:21:09;;;;;;;14.45;4.88;;;9.10;94.00;;;;;;4972582;28;20027;-73
2024/01/26 10:23:35;;;;;;;12.50;3.53;;;9.20;94.20;;;;;;4972961;28;20453;-74
2024/01/26 10:26:01;;;;;;;10.50;4.28;;;9.20;94.10;;;;;;4972560;28;20039;-78
2024/01/26 10:28:27;;;;;;;13.57;4.43;;;9.20;94.60;;;;;;4971043;28;20068;-74
2024/01/26 10:30:53;;;;;;;12.75;3.72;;;9.20;94.60;;;;;;4972563;28;20026;-74
2024/01/26 10:33:24;;;;;;;8.30;3.20;;;9.30;94.80;;;;;;4973177;28;20031;-73
2024/01/26 10:35:51;;;;;;;9.65;3.83;;;9.30;94.20;;;;;;4955487;28;20031;-73
2024/01/26 10:38:17;;;;;;;12.65;3.60;;;9.30;95.30;;;;;;4971397;28;20110;-74
2024/01/26 10:40:44;;;;;;;12.90;4.35;;;9.30;94.70;;;;;;4972405;28;20026;-72
2024/01/26 10:43:15;;;;;;;6.80;3.58;;;9.30;94.60;;;;;;4973276;28;20034;-74
2024/01/26 10:45:43;;;;;;;15.27;4.20;;;9.40;94.80;;;;;;4972562;28;20100;-73
2024/01/26 10:48:10;;;;;;;9.68;3.78;;;9.50;94.90;;;;;;4938695;28;20019;-74
2024/01/26 10:50:36;;;;;;;11.45;4.13;;;9.60;95.00;;;;;;4972422;28;20035;-74
2024/01/26 10:53:05;;;;;;;9.25;4.00;;;9.70;94.50;;;;;;4972554;28;20050;-73
2024/01/26 10:55:32;;;;;;;11.82;3.85;;;9.70;94.80;;;;;;4972737;28;20023;-73
2024/01/26 10:58:01;;;;;;;11.85;4.55;;;9.80;94.90;;;;;;4955127;28;20216;-75
2024/01/26 11:00:27;;;;;;;7.90;3.20;;;9.90;94.60;;;;;;4972859;28;20035;-75
2024/01/26 11:02:54;;;;;;;10.43;3.40;;;9.80;94.30;;;;;;4972372;28;20030;-74
2024/01/26 11:05:23;;;;;;;7.43;3.38;;;9.80;94.90;;;;;;4972661;28;20430;-75
2024/01/26 11:07:52;;;;;;;8.13;3.40;;;9.80;94.60;;;;;;4972325;28;20078;-79
2024/01/26 11:10:25;;;;;;;7.95;2.78;;;9.80;93.30;;;;;;4942357;29;20447;-73
2024/01/26 11:13:05;;;;;;;8.38;2.20;;;9.80;93.50;;;;;;4937668;29;20067;-72
2024/01/26 11:15:34;;;;;;;9.77;2.28;;;9.90;92.80;;;;;;4937574;29;20035;-73
2024/01/26 11:18:01;;;;;;;8.82;2.22;;;9.90;93.00;;;;;;4937319;29;20031;-74
2024/01/26 11:20:32;;;;;;;4.10;2.22;;;9.90;91.80;;;;;;4937243;29;20440;-74
2024/01/26 11:23:04;;;;;;;9.55;2.35;;;9.90;92.40;;;;;;4937121;29;20032;-72
2024/01/26 11:25:37;;;;;;;6.50;1.98;;;10.00;91.90;;;;;;4937352;29;20119;-74
2024/01/26 11:28:11;;;;;;;7.53;2.60;;;10.00;92.40;;;;;;4937200;29;20023;-74
2024/01/26 11:30:39;;;;;;;11.13;2.63;;;10.00;92.30;;;;;;4936927;29;20558;-74
2024/01/26 11:33:19;;;;;;;4.00;2.15;;;10.00;92.50;;;;;;4937200;29;20011;-72
2024/01/26 11:35:46;;;;;;;12.60;2.65;;;10.00;92.10;;;;;;4936697;29;20034;-74
2024/01/26 11:38:13;;;;;;;8.07;2.22;;;9.90;91.50;;;;;;4937313;29;20051;-72
2024/01/26 11:40:39;;;;;;;8.75;3.03;;;9.90;92.30;;;;;;4903728;29;20043;-73
2024/01/26 11:43:05;;;;;;;6.68;2.28;;;10.00;92.60;;;;;;4937209;29;20396;-74
2024/01/26 11:45:44;;;;;;;8.40;3.15;;;9.90;92.60;;;;;;4936601;29;20031;-76
2024/01/26 11:48:11;;;;;;;8.38;2.38;;;10.00;92.50;;;;;;4936860;29;20039;-74
2024/01/26 11:50:38;;;;;;;12.13;3.55;;;10.10;92.40;;;;;;4936412;29;20050;-76
2024/01/26 11:53:05;;;;;;;8.10;2.50;;;10.20;92.80;;;;;;4936796;29;20031;-75
2024/01/26 11:55:31;;;;;;;8.25;2.50;;;10.20;91.90;;;;;;4936429;29;20118;-73
2024/01/26 11:58:02;;;;;;;9.65;2.65;;;10.20;91.70;;;;;;4936612;29;20074;-74
2024/01/26 12:00:43;;;;;;;8.35;2.58;;;10.20;92.20;;;;;;4936805;29;20475;-74
2024/01/26 12:03:12;;;;;;;8.18;2.15;;;10.10;91.80;;;;;;4903278;29;20032;-75
2024/01/26 12:05:38;;;;;;;7.68;2.35;;;10.20;92.10;;;;;;4936353;29;20083;-76
2024/01/26 12:08:05;;;;;;;9.88;3.15;;;10.20;92.70;;;;;;4936401;29;20028;-73
2024/01/26 12:10:33;;;;;;;9.32;3.15;;;10.20;92.80;;;;;;4950855;29;20043;-75
2024/01/26 12:12:59;;;;;;;10.40;3.20;;;10.30;92.30;;;;;;4955410;29;20030;-77
2024/01/26 12:15:31;;;;;;;6.10;2.63;;;10.30;92.30;;;;;;4955541;29;20054;-76
2024/01/26 12:18:00;;;;;;;9.55;2.22;;;10.20;91.80;;;;;;4954951;28;20031;-74
2024/01/26 12:20:26;;;;;;;9.50;2.60;;;10.20;92.10;;;;;;4955717;29;20110;-76
2024/01/26 12:22:55;;;;;;;5.90;2.15;;;10.20;92.40;;;;;;4953791;28;20114;-77
2024/01/26 12:25:26;;;;;;;9.82;3.53;;;10.10;91.70;;;;;;4944348;29;20132;-79
2024/01/26 12:27:53;;;;;;;6.60;2.97;;;10.10;92.70;;;;;;4954015;29;20027;-79
2024/01/26 12:30:19;;;;;;;4.10;2.15;;;10.10;93.40;;;;;;4942020;29;20040;-72
2024/01/26 12:32:45;;;;;;;7.03;2.17;;;10.10;93.30;;;;;;4953802;29;20027;-79
2024/01/26 12:35:11;;;;;;;8.65;2.78;;;10.20;92.80;;;;;;4955189;29;20024;-74
2024/01/26 12:37:37;;;;;;;10.60;3.72;;;10.20;92.80;;;;;;4954935;29;20023;-74
2024/01/26 12:40:06;;;;;;;9.60;2.83;;;10.20;93.10;;;;;;4954923;29;20118;-75
2024/01/26 12:42:32;;;;;;;9.07;3.45;;;10.20;93.10;;;;;;4955023;29;20031;-78
2024/01/26 12:44:59;;;;;;;5.75;2.70;;;10.30;92.50;;;;;;4954825;29;20032;-80
2024/01/26 12:47:24;;;;;;;6.13;2.28;;;10.40;92.80;;;;;;4955062;29;20452;-81
2024/01/26 12:49:50;;;;;;;6.80;2.78;;;10.40;92.80;;;;;;4954882;29;20099;-76